createdAt,value
2022-10-29T00:00:54.543Z,7.52
2022-10-29T00:01:54.641Z,7.62
2022-10-29T00:02:54.613Z,8.05
2022-10-29T00:03:54.540Z,7.73
2022-10-29T00:04:54.589Z,7.46
2022-10-29T00:05:54.530Z,7.70
2022-10-29T00:06:54.566Z,7.16
2022-10-29T00:07:54.920Z,6.51
2022-10-29T00:08:54.568Z,7.26
2022-10-29T00:09:54.586Z,6.53
2022-10-29T00:10:54.558Z,7.05
2022-10-29T00:11:54.543Z,7.77
2022-10-29T00:13:54.564Z,7.31
2022-10-29T00:14:54.624Z,7.84
2022-10-29T00:15:54.560Z,6.40
2022-10-29T00:16:54.585Z,6.23
2022-10-29T00:17:54.895Z,6.01
2022-10-29T00:18:54.557Z,5.98
2022-10-29T00:19:54.660Z,5.99
2022-10-29T00:20:54.596Z,6.05
2022-10-29T00:21:54.586Z,6.09
2022-10-29T00:22:54.820Z,6.29
2022-10-29T00:23:54.597Z,6.56
2022-10-29T00:24:54.634Z,6.35
2022-10-29T00:25:54.599Z,6.76
2022-10-29T00:26:54.616Z,6.83
2022-10-29T00:27:54.661Z,6.93
2022-10-29T00:28:54.621Z,7.12
2022-10-29T00:29:54.639Z,7.13
2022-10-29T00:30:54.633Z,7.12
2022-10-29T00:32:55.074Z,6.82
2022-10-29T00:33:54.618Z,6.50
2022-10-29T00:34:54.656Z,6.45
2022-10-29T00:35:54.627Z,5.51
2022-10-29T00:43:54.654Z,7.54
2022-10-29T00:44:54.662Z,7.10
2022-10-29T00:46:54.650Z,7.31
2022-10-29T00:47:55.089Z,7.18
2022-10-29T00:48:54.704Z,6.99
2022-10-29T00:49:54.703Z,6.81
2022-10-29T00:52:54.696Z,6.98
2022-10-29T00:53:54.679Z,6.05
2022-10-29T00:55:54.675Z,6.77
2022-10-29T00:56:54.682Z,5.78
2022-10-29T00:58:54.686Z,6.57
2022-10-29T00:59:54.688Z,6.32
2022-10-29T01:00:54.721Z,6.25
2022-10-29T01:01:54.769Z,5.46
2022-10-29T01:02:55.059Z,6.24
2022-10-29T01:03:54.693Z,6.27
2022-10-29T01:04:54.697Z,6.22
2022-10-29T01:05:54.711Z,6.12
2022-10-29T01:08:54.711Z,5.58
2022-10-29T01:10:54.747Z,6.48
2022-10-29T01:12:55.155Z,6.47
2022-10-29T01:13:54.703Z,5.69
2022-10-29T01:14:54.710Z,5.09
2022-10-29T01:15:54.767Z,6.52
2022-10-29T01:16:54.705Z,5.96
2022-10-29T01:17:55.036Z,5.69
2022-10-29T01:18:54.759Z,6.17
2022-10-29T01:19:54.715Z,5.38
2022-10-29T01:20:54.752Z,5.49
2022-10-29T01:21:54.747Z,6.02
2022-10-29T01:22:54.789Z,5.43
2022-10-29T01:23:54.740Z,5.99
2022-10-29T01:24:54.744Z,5.63
2022-10-29T01:25:54.795Z,6.08
2022-10-29T01:26:54.736Z,6.02
2022-10-29T01:27:54.984Z,6.24
2022-10-29T01:28:54.752Z,6.34
2022-10-29T01:29:54.775Z,6.13
2022-10-29T01:30:54.782Z,6.30
2022-10-29T01:31:54.748Z,6.93
2022-10-29T01:32:55.165Z,6.37
2022-10-29T01:33:54.757Z,6.78
2022-10-29T01:34:54.789Z,7.08
2022-10-29T01:35:54.821Z,6.41
2022-10-29T01:36:54.782Z,7.92
2022-10-29T01:38:54.790Z,6.64
2022-10-29T01:40:54.822Z,6.86
2022-10-29T01:41:54.804Z,7.62
2022-10-29T01:42:55.044Z,5.54
2022-10-29T01:43:54.795Z,6.12
2022-10-29T01:44:54.793Z,5.37
2022-10-29T01:45:54.842Z,5.72
2022-10-29T01:46:54.822Z,5.09
2022-10-29T01:47:55.163Z,5.19
2022-10-29T01:48:54.858Z,5.17
2022-10-29T01:49:54.801Z,4.85
2022-10-29T01:51:54.805Z,5.03
2022-10-29T01:52:54.809Z,5.39
2022-10-29T01:53:54.866Z,5.30
2022-10-29T01:54:54.828Z,5.01
2022-10-29T01:56:54.843Z,5.52
2022-10-29T01:57:55.347Z,4.96
2022-10-29T01:58:54.857Z,4.33
2022-10-29T02:01:54.872Z,5.02
2022-10-29T02:02:54.885Z,4.66
2022-10-29T02:03:54.874Z,5.25
2022-10-29T02:04:54.832Z,5.29
2022-10-29T02:05:54.840Z,5.35
2022-10-29T02:06:54.851Z,4.81
2022-10-29T02:07:54.872Z,5.48
2022-10-29T02:08:54.884Z,5.75
2022-10-29T02:10:54.867Z,5.82
2022-10-29T02:11:54.900Z,5.26
2022-10-29T02:12:55.292Z,4.53
2022-10-29T02:13:54.933Z,5.13
2022-10-29T02:14:54.873Z,4.50
2022-10-29T02:15:54.867Z,4.91
2022-10-29T02:16:54.915Z,5.21
2022-10-29T02:19:54.889Z,5.12
2022-10-29T02:20:54.895Z,4.51
2022-10-29T02:21:54.930Z,4.67
2022-10-29T02:22:54.928Z,4.04
2022-10-29T02:23:54.886Z,4.81
2022-10-29T02:24:54.895Z,5.49
2022-10-29T02:25:54.997Z,6.13
2022-10-29T02:26:54.945Z,4.95
2022-10-29T02:27:55.155Z,5.64
2022-10-29T02:28:54.910Z,5.02
2022-10-29T02:29:54.968Z,6.53
2022-10-29T02:31:54.955Z,7.62
2022-10-29T02:35:54.923Z,5.73
2022-10-29T02:36:54.981Z,5.34
2022-10-29T02:37:54.930Z,5.38
2022-10-29T02:38:54.937Z,4.96
2022-10-29T02:39:54.984Z,5.39
2022-10-29T02:40:54.933Z,4.90
2022-10-29T02:41:54.966Z,4.72
2022-10-29T02:42:55.283Z,4.82
2022-10-29T02:43:54.961Z,4.43
2022-10-29T02:44:54.986Z,5.14
2022-10-29T02:45:54.973Z,5.02
2022-10-29T02:46:54.957Z,5.26
2022-10-29T02:47:55.396Z,5.20
2022-10-29T02:48:54.965Z,5.07
2022-10-29T02:49:54.980Z,5.37
2022-10-29T02:51:54.963Z,5.89
2022-10-29T02:52:54.950Z,5.39
2022-10-29T02:53:54.976Z,4.89
2022-10-29T02:54:55.015Z,5.25
2022-10-29T02:55:54.996Z,5.46
2022-10-29T02:56:55.004Z,5.42
2022-10-29T02:58:54.989Z,5.64
2022-10-29T03:03:55.004Z,5.43
2022-10-29T03:04:54.991Z,5.14
2022-10-29T03:05:55.050Z,5.70
2022-10-29T03:06:55.006Z,5.17
2022-10-29T03:07:55.049Z,5.57
2022-10-29T03:08:55.015Z,5.42
2022-10-29T03:09:55.014Z,4.89
2022-10-29T03:10:55.067Z,4.83
2022-10-29T03:11:55.037Z,5.26
2022-10-29T03:12:55.436Z,4.81
2022-10-29T03:13:55.060Z,5.50
2022-10-29T03:15:55.076Z,4.80
2022-10-29T03:17:55.392Z,5.45
2022-10-29T03:18:55.029Z,5.60
2022-10-29T03:19:55.046Z,5.46
2022-10-29T03:20:55.073Z,5.31
2022-10-29T03:21:55.017Z,5.49
2022-10-29T03:22:55.038Z,5.55
2022-10-29T03:26:55.055Z,6.23
2022-10-29T03:27:55.504Z,5.73
2022-10-29T03:28:55.142Z,5.82
2022-10-29T03:31:55.099Z,4.95
2022-10-29T03:32:55.364Z,5.58
2022-10-29T03:38:55.192Z,5.78
2022-10-29T03:40:55.100Z,5.66
2022-10-29T03:41:55.129Z,5.69
2022-10-29T03:42:55.433Z,5.32
2022-10-29T03:46:55.157Z,5.03
2022-10-29T03:48:55.136Z,5.78
2022-10-29T03:49:55.113Z,5.52
2022-10-29T03:50:55.103Z,5.87
2022-10-29T03:52:55.125Z,5.76
2022-10-29T03:53:55.140Z,4.97
2022-10-29T03:54:55.173Z,5.43
2022-10-29T03:55:55.131Z,5.22
2022-10-29T03:58:55.190Z,5.35
2022-10-29T04:00:55.163Z,6.07
2022-10-29T04:01:55.273Z,5.55
2022-10-29T04:02:55.595Z,5.28
2022-10-29T04:03:55.147Z,5.03
2022-10-29T04:04:55.180Z,4.89
2022-10-29T04:05:55.158Z,4.83
2022-10-29T04:06:55.225Z,4.95
2022-10-29T04:08:55.156Z,4.91
2022-10-29T04:10:55.198Z,4.20
2022-10-29T04:11:55.189Z,5.11
2022-10-29T04:14:55.217Z,5.31
2022-10-29T04:16:55.212Z,4.71
2022-10-29T04:17:55.554Z,4.88
2022-10-29T04:18:55.208Z,4.29
2022-10-29T04:19:55.234Z,5.07
2022-10-29T04:28:55.215Z,6.11
2022-10-29T04:30:55.236Z,5.29
2022-10-29T04:31:55.206Z,5.66
2022-10-29T04:33:55.267Z,5.19
2022-10-29T04:35:55.238Z,6.50
2022-10-29T04:37:55.278Z,6.40
2022-10-29T04:38:55.240Z,6.07
2022-10-29T04:39:55.306Z,6.35
2022-10-29T04:40:55.246Z,6.26
2022-10-29T04:41:55.244Z,6.16
2022-10-29T04:43:55.243Z,6.13
2022-10-29T04:44:55.278Z,5.59
2022-10-29T04:45:55.261Z,5.72
2022-10-29T04:47:55.551Z,5.33
2022-10-29T04:48:55.289Z,6.16
2022-10-29T04:49:55.254Z,5.35
2022-10-29T04:50:55.255Z,6.06
2022-10-29T04:51:55.272Z,5.56
2022-10-29T04:52:55.287Z,5.60
2022-10-29T04:54:55.273Z,5.47
2022-10-29T04:55:55.274Z,5.94
2022-10-29T04:56:55.268Z,5.81
2022-10-29T04:57:55.520Z,5.47
2022-10-29T04:58:55.281Z,5.71
2022-10-29T04:59:55.284Z,5.56
2022-10-29T05:00:55.367Z,5.44
2022-10-29T05:01:55.274Z,5.52
2022-10-29T05:02:55.681Z,5.98
2022-10-29T05:03:58.945Z,6.23
2022-10-29T05:04:55.320Z,5.84
2022-10-29T05:05:55.323Z,6.37
2022-10-29T05:06:55.300Z,5.73
2022-10-29T05:07:55.341Z,6.15
2022-10-29T05:08:55.320Z,6.23
2022-10-29T05:09:55.297Z,5.97
2022-10-29T05:10:55.341Z,6.31
2022-10-29T05:11:55.307Z,5.95
2022-10-29T05:12:55.703Z,6.48
2022-10-29T05:13:55.328Z,5.67
2022-10-29T05:14:55.310Z,6.33
2022-10-29T05:16:55.377Z,6.07
2022-10-29T05:17:55.625Z,5.55
2022-10-29T05:18:55.331Z,5.11
2022-10-29T05:19:55.332Z,5.99
2022-10-29T05:20:55.374Z,6.10
2022-10-29T05:21:55.336Z,6.15
2022-10-29T05:22:55.380Z,5.95
2022-10-29T05:23:55.354Z,6.31
2022-10-29T05:24:55.364Z,5.44
2022-10-29T05:25:55.385Z,5.96
2022-10-29T05:26:55.373Z,6.31
2022-10-29T05:27:55.670Z,6.30
2022-10-29T05:28:55.363Z,6.24
2022-10-29T05:32:55.561Z,6.54
2022-10-29T05:34:55.359Z,6.40
2022-10-29T05:35:55.407Z,6.20
2022-10-29T05:36:55.368Z,6.54
2022-10-29T05:37:55.385Z,6.87
2022-10-29T05:38:55.397Z,7.70
2022-10-29T05:39:55.383Z,6.79
2022-10-29T05:40:55.431Z,6.83
2022-10-29T05:42:55.801Z,6.35
2022-10-29T05:43:55.429Z,6.72
2022-10-29T05:44:55.398Z,6.63
2022-10-29T05:47:55.408Z,7.12
2022-10-29T05:48:55.438Z,7.58
2022-10-29T05:49:55.404Z,6.51
2022-10-29T05:50:55.460Z,7.05
2022-10-29T05:51:55.422Z,7.02
2022-10-29T05:52:55.821Z,6.64
2022-10-29T05:55:55.483Z,6.78
2022-10-29T05:57:55.440Z,6.95
2022-10-29T05:58:55.481Z,6.35
2022-10-29T05:59:55.441Z,7.49
2022-10-29T06:00:55.456Z,6.79
2022-10-29T06:03:55.497Z,7.54
2022-10-29T06:06:55.534Z,6.42
2022-10-29T06:07:55.884Z,6.53
2022-10-29T06:08:55.501Z,6.62
2022-10-29T06:10:55.494Z,6.63
2022-10-29T06:14:55.489Z,6.34
2022-10-29T06:15:55.568Z,7.22
2022-10-29T06:16:55.494Z,6.53
2022-10-29T06:17:55.934Z,6.59
2022-10-29T06:18:55.503Z,6.49
2022-10-29T06:19:55.503Z,6.74
2022-10-29T06:20:55.491Z,7.18
2022-10-29T06:21:59.412Z,6.64
2022-10-29T06:22:55.980Z,6.51
2022-10-29T06:23:55.537Z,6.95
2022-10-29T06:24:55.501Z,6.51
2022-10-29T06:25:55.512Z,8.24
2022-10-29T06:26:55.524Z,7.21
2022-10-29T06:27:55.573Z,7.39
2022-10-29T06:28:55.546Z,7.45
2022-10-29T06:29:55.506Z,7.96
2022-10-29T06:30:55.531Z,7.40
2022-10-29T06:31:55.555Z,7.09
2022-10-29T06:32:55.882Z,7.18
2022-10-29T06:33:56.811Z,7.78
2022-10-29T06:37:56.117Z,7.70
2022-10-29T06:38:55.566Z,7.53
2022-10-29T06:39:55.555Z,7.28
2022-10-29T06:40:55.558Z,7.79
2022-10-29T06:41:55.588Z,9.16
2022-10-29T06:42:55.571Z,8.30
2022-10-29T06:43:55.557Z,7.68
2022-10-29T06:44:55.536Z,7.73
2022-10-29T06:45:55.549Z,7.88
2022-10-29T06:46:55.632Z,9.76
2022-10-29T06:47:55.834Z,10.39
2022-10-29T06:48:55.578Z,9.62
2022-10-29T06:49:55.590Z,8.15
2022-10-29T06:50:55.589Z,7.81
2022-10-29T06:51:55.583Z,8.34
2022-10-29T06:52:55.922Z,8.00
2022-10-29T06:53:55.570Z,9.38
2022-10-29T06:54:55.619Z,8.87
2022-10-29T06:55:55.599Z,7.38
2022-10-29T06:56:55.583Z,7.72
2022-10-29T06:57:55.616Z,7.87
2022-10-29T06:58:55.582Z,8.28
2022-10-29T06:59:55.584Z,8.15
2022-10-29T07:00:55.674Z,8.10
2022-10-29T07:01:55.688Z,7.63
2022-10-29T07:02:58.258Z,8.37
2022-10-29T07:03:55.738Z,8.57
2022-10-29T07:04:55.616Z,7.97
2022-10-29T07:05:55.636Z,8.64
2022-10-29T07:06:55.617Z,7.79
2022-10-29T07:07:55.947Z,7.77
2022-10-29T07:08:55.628Z,6.89
2022-10-29T07:09:55.619Z,6.96
2022-10-29T07:10:55.661Z,7.41
2022-10-29T07:11:55.614Z,7.71
2022-10-29T07:12:55.677Z,6.93
2022-10-29T07:13:55.635Z,7.13
2022-10-29T07:14:55.669Z,7.11
2022-10-29T07:15:55.675Z,7.91
2022-10-29T07:16:55.647Z,7.47
2022-10-29T07:17:55.932Z,7.35
2022-10-29T07:18:55.646Z,7.59
2022-10-29T07:19:55.656Z,7.40
2022-10-29T07:20:55.690Z,7.45
2022-10-29T07:21:55.647Z,7.89
2022-10-29T07:22:55.653Z,7.66
2022-10-29T07:23:55.677Z,7.51
2022-10-29T07:24:58.609Z,7.45
2022-10-29T07:25:55.692Z,8.09
2022-10-29T07:26:55.646Z,7.25
2022-10-29T07:27:55.985Z,7.18
2022-10-29T07:28:55.689Z,6.59
2022-10-29T07:29:55.665Z,7.70
2022-10-29T07:30:55.784Z,8.54
2022-10-29T07:31:55.676Z,8.08
2022-10-29T07:32:55.696Z,8.57
2022-10-29T07:33:55.719Z,7.99
2022-10-29T07:34:55.681Z,7.63
2022-10-29T07:35:55.707Z,7.74
2022-10-29T07:36:55.718Z,8.10
2022-10-29T07:37:56.011Z,7.82
2022-10-29T07:38:55.737Z,7.28
2022-10-29T07:39:58.060Z,7.67
2022-10-29T07:40:55.695Z,7.66
2022-10-29T07:41:59.151Z,7.18
2022-10-29T07:42:56.012Z,7.63
2022-10-29T07:43:55.749Z,7.57
2022-10-29T07:44:55.717Z,8.39
2022-10-29T07:45:55.732Z,8.75
2022-10-29T07:46:55.752Z,8.03
2022-10-29T07:47:58.679Z,7.31
2022-10-29T07:48:55.724Z,7.44
2022-10-29T07:49:55.826Z,7.80
2022-10-29T07:50:55.709Z,8.12
2022-10-29T07:51:55.759Z,7.73
2022-10-29T07:52:56.035Z,7.80
2022-10-29T07:53:55.719Z,7.74
2022-10-29T07:54:55.721Z,8.47
2022-10-29T07:55:59.956Z,7.42
2022-10-29T07:56:55.895Z,7.62
2022-10-29T07:57:56.167Z,7.63
2022-10-29T07:58:55.783Z,7.14
2022-10-29T07:59:55.744Z,7.56
2022-10-29T08:00:55.773Z,7.51
2022-10-29T08:01:55.942Z,6.79
2022-10-29T08:02:55.748Z,7.21
2022-10-29T08:03:57.741Z,7.40
2022-10-29T08:04:55.792Z,8.14
2022-10-29T08:05:56.712Z,7.03
2022-10-29T08:06:55.812Z,7.62
2022-10-29T08:07:55.971Z,7.67
2022-10-29T08:08:55.773Z,7.67
2022-10-29T08:09:55.823Z,7.66
2022-10-29T08:10:55.784Z,7.48
2022-10-29T08:11:55.777Z,8.42
2022-10-29T08:12:56.274Z,8.18
2022-10-29T08:13:55.810Z,6.92
2022-10-29T08:14:55.825Z,7.28
2022-10-29T08:15:55.793Z,7.36
2022-10-29T08:16:58.297Z,7.20
2022-10-29T08:17:55.824Z,8.03
2022-10-29T08:18:55.798Z,8.35
2022-10-29T08:19:55.795Z,7.79
2022-10-29T08:20:55.809Z,7.78
2022-10-29T08:21:55.800Z,7.17
2022-10-29T08:22:56.303Z,7.62
2022-10-29T08:23:55.798Z,7.94
2022-10-29T08:25:55.816Z,8.04
2022-10-29T08:26:55.828Z,8.02
2022-10-29T08:28:55.843Z,8.29
2022-10-29T08:29:55.866Z,8.06
2022-10-29T08:30:55.844Z,7.61
2022-10-29T08:31:55.852Z,7.97
2022-10-29T08:32:56.220Z,8.35
2022-10-29T08:33:55.831Z,8.15
2022-10-29T08:34:55.856Z,8.20
2022-10-29T08:35:55.838Z,7.50
2022-10-29T08:36:55.858Z,7.77
2022-10-29T08:37:55.878Z,8.37
2022-10-29T08:38:55.847Z,8.00
2022-10-29T08:39:55.859Z,7.86
2022-10-29T08:40:55.865Z,7.90
2022-10-29T08:41:55.850Z,8.08
2022-10-29T08:42:56.237Z,8.67
2022-10-29T08:43:55.928Z,7.53
2022-10-29T08:44:55.893Z,7.84
2022-10-29T08:45:55.947Z,8.29
2022-10-29T08:46:55.853Z,8.29
2022-10-29T08:47:56.192Z,8.42
2022-10-29T08:48:55.874Z,9.08
2022-10-29T08:49:55.872Z,7.78
2022-10-29T08:50:55.910Z,8.04
2022-10-29T08:51:55.874Z,8.71
2022-10-29T08:53:19.473Z,7.71
2022-10-29T08:54:25.471Z,8.73
2022-10-29T08:54:55.892Z,8.61
2022-10-29T08:55:55.909Z,9.03
2022-10-29T08:56:55.891Z,9.03
2022-10-29T08:57:56.281Z,8.46
2022-10-29T08:58:55.913Z,8.91
2022-10-29T08:59:55.979Z,7.87
2022-10-29T09:00:55.998Z,8.62
2022-10-29T09:01:56.092Z,7.98
2022-10-29T09:02:56.188Z,8.32
2022-10-29T09:03:55.931Z,8.06
2022-10-29T09:04:55.913Z,6.88
2022-10-29T09:05:55.976Z,7.85
2022-10-29T09:06:55.912Z,7.50
2022-10-29T09:07:57.212Z,7.22
2022-10-29T09:08:55.968Z,7.95
2022-10-29T09:09:55.926Z,8.54
2022-10-29T09:10:55.981Z,7.69
2022-10-29T09:11:55.935Z,8.73
2022-10-29T09:12:56.163Z,7.80
2022-10-29T09:13:55.970Z,7.44
2022-10-29T09:14:55.969Z,8.29
2022-10-29T09:15:57.751Z,7.98
2022-10-29T09:16:55.934Z,7.97
2022-10-29T09:17:56.360Z,8.01
2022-10-29T09:18:55.974Z,8.23
2022-10-29T09:19:55.981Z,7.28
2022-10-29T09:20:56.005Z,8.40
2022-10-29T09:21:55.959Z,7.54
2022-10-29T09:22:55.961Z,7.31
2022-10-29T09:23:56.004Z,8.25
2022-10-29T09:24:55.944Z,7.31
2022-10-29T09:25:56.014Z,7.44
2022-10-29T09:26:55.995Z,7.32
2022-10-29T09:27:56.229Z,8.47
2022-10-29T09:28:56.001Z,8.26
2022-10-29T09:29:55.972Z,8.08
2022-10-29T09:30:58.657Z,8.55
2022-10-29T09:31:56.008Z,8.82
2022-10-29T09:32:55.979Z,7.30
2022-10-29T09:33:59.265Z,8.66
2022-10-29T09:34:56.035Z,8.29
2022-10-29T09:35:56.020Z,8.58
2022-10-29T09:36:56.015Z,8.16
2022-10-29T09:37:56.248Z,7.53
2022-10-29T09:38:56.052Z,8.61
2022-10-29T09:39:55.997Z,8.12
2022-10-29T09:40:56.031Z,7.94
2022-10-29T09:41:56.027Z,8.08
2022-10-29T09:42:56.027Z,8.18
2022-10-29T09:43:56.049Z,8.13
2022-10-29T09:44:56.008Z,7.94
2022-10-29T09:45:55.991Z,7.89
2022-10-29T09:46:56.057Z,7.82
2022-10-29T09:47:56.297Z,8.55
2022-10-29T09:48:56.126Z,8.47
2022-10-29T09:49:56.031Z,8.81
2022-10-29T09:50:56.038Z,8.13
2022-10-29T09:51:56.067Z,8.68
2022-10-29T09:52:56.467Z,7.61
2022-10-29T09:53:56.074Z,8.90
2022-10-29T09:54:56.028Z,9.02
2022-10-29T09:55:56.026Z,8.55
2022-10-29T09:56:56.369Z,8.16
2022-10-29T09:57:56.055Z,9.04
2022-10-29T09:58:56.094Z,7.64
2022-10-29T09:59:56.058Z,8.16
2022-10-29T10:00:56.064Z,7.73
2022-10-29T10:01:56.135Z,7.75
2022-10-29T10:02:56.703Z,7.81
2022-10-29T10:03:56.205Z,8.90
2022-10-29T10:04:56.051Z,8.14
2022-10-29T10:05:56.078Z,8.67
2022-10-29T10:06:56.106Z,8.57
2022-10-29T10:07:59.049Z,7.84
2022-10-29T10:08:56.070Z,8.35
2022-10-29T10:09:56.066Z,7.93
2022-10-29T10:10:56.081Z,7.41
2022-10-29T10:11:56.134Z,7.56
2022-10-29T10:12:56.092Z,7.92
2022-10-29T10:13:56.117Z,7.07
2022-10-29T10:14:56.093Z,8.17
2022-10-29T10:15:56.087Z,7.83
2022-10-29T10:16:56.146Z,7.53
2022-10-29T10:17:56.463Z,7.35
2022-10-29T10:18:56.126Z,7.27
2022-10-29T10:19:56.166Z,7.73
2022-10-29T10:20:56.117Z,8.00
2022-10-29T10:21:56.141Z,7.62
2022-10-29T10:22:56.447Z,7.43
2022-10-29T10:24:56.179Z,7.43
2022-10-29T10:26:00.332Z,7.31
2022-10-29T10:26:56.172Z,7.49
2022-10-29T10:27:56.428Z,7.16
2022-10-29T10:28:56.112Z,6.63
2022-10-29T10:29:56.202Z,7.26
2022-10-29T10:30:56.131Z,7.53
2022-10-29T10:31:56.188Z,7.00
2022-10-29T10:32:56.572Z,6.97
2022-10-29T10:33:56.148Z,7.14
2022-10-29T10:34:56.179Z,7.03
2022-10-29T10:36:56.183Z,7.52
2022-10-29T10:37:56.403Z,7.49
2022-10-29T10:38:56.142Z,7.23
2022-10-29T10:39:56.185Z,7.23
2022-10-29T10:40:56.175Z,7.08
2022-10-29T10:41:56.212Z,7.71
2022-10-29T10:42:56.153Z,7.44
2022-10-29T10:43:56.167Z,6.55
2022-10-29T10:44:59.129Z,7.72
2022-10-29T10:45:56.166Z,7.39
2022-10-29T10:46:56.206Z,7.40
2022-10-29T10:47:56.472Z,7.66
2022-10-29T10:48:56.190Z,7.86
2022-10-29T10:50:56.188Z,7.53
2022-10-29T10:51:56.211Z,8.38
2022-10-29T10:52:56.608Z,6.98
2022-10-29T10:53:56.277Z,7.19
2022-10-29T10:54:56.218Z,7.68
2022-10-29T10:55:56.200Z,7.85
2022-10-29T10:56:56.207Z,13.24
2022-10-29T10:57:56.189Z,12.69
2022-10-29T10:58:56.221Z,9.15
2022-10-29T10:59:56.273Z,9.08
2022-10-29T11:01:56.331Z,7.64
2022-10-29T11:02:56.473Z,7.41
2022-10-29T11:04:56.269Z,8.58
2022-10-29T11:05:56.219Z,7.97
2022-10-29T11:06:56.234Z,7.47
2022-10-29T11:08:56.239Z,7.53
2022-10-29T11:11:59.072Z,8.32
2022-10-29T11:12:56.276Z,8.31
2022-10-29T11:13:56.233Z,8.09
2022-10-29T11:14:56.270Z,8.34
2022-10-29T11:15:56.247Z,7.94
2022-10-29T11:16:56.275Z,7.93
2022-10-29T11:17:56.847Z,8.50
2022-10-29T11:18:56.250Z,8.13
2022-10-29T11:19:56.314Z,7.44
2022-10-29T11:20:56.273Z,7.86
2022-10-29T11:21:59.332Z,7.68
2022-10-29T11:22:56.662Z,8.62
2022-10-29T11:23:56.263Z,8.44
2022-10-29T11:25:56.301Z,8.15
2022-10-29T11:26:56.298Z,8.33
2022-10-29T11:27:56.336Z,8.10
2022-10-29T11:28:56.293Z,8.08
2022-10-29T11:29:56.380Z,7.19
2022-10-29T11:30:56.291Z,8.37
2022-10-29T11:31:56.287Z,7.64
2022-10-29T11:32:56.757Z,7.90
2022-10-29T11:33:56.343Z,7.22
2022-10-29T11:35:58.913Z,7.49
2022-10-29T11:36:56.325Z,7.31
2022-10-29T11:37:56.945Z,6.44
2022-10-29T11:38:56.293Z,7.36
2022-10-29T11:40:56.387Z,7.84
2022-10-29T11:43:56.325Z,8.68
2022-10-29T11:44:56.337Z,7.72
2022-10-29T11:45:56.359Z,7.88
2022-10-29T11:46:56.336Z,7.98
2022-10-29T11:47:56.613Z,7.72
2022-10-29T11:48:56.339Z,7.42
2022-10-29T11:49:56.345Z,7.08
2022-10-29T11:50:56.368Z,7.96
2022-10-29T11:51:56.365Z,7.25
2022-10-29T11:52:56.637Z,7.07
2022-10-29T11:56:56.356Z,8.02
2022-10-29T11:59:56.385Z,7.03
2022-10-29T12:01:56.449Z,8.09
2022-10-29T12:02:56.851Z,7.18
2022-10-29T12:03:56.450Z,6.91
2022-10-29T12:04:56.382Z,6.56
2022-10-29T12:05:56.437Z,7.45
2022-10-29T12:06:56.376Z,7.33
2022-10-29T12:07:56.558Z,7.27
2022-10-29T12:09:56.387Z,7.55
2022-10-29T12:10:56.429Z,6.86
2022-10-29T12:11:56.390Z,7.23
2022-10-29T12:12:56.407Z,7.17
2022-10-29T12:14:56.408Z,7.39
2022-10-29T12:15:56.470Z,7.22
2022-10-29T12:16:56.449Z,7.27
2022-10-29T12:17:56.802Z,6.98
2022-10-29T12:18:56.478Z,6.91
2022-10-29T12:19:56.567Z,7.11
2022-10-29T12:20:56.513Z,6.38
2022-10-29T12:21:56.455Z,7.35
2022-10-29T12:23:02.451Z,7.67
2022-10-29T12:23:56.493Z,7.55
2022-10-29T12:24:56.459Z,7.22
2022-10-29T12:25:56.461Z,7.42
2022-10-29T12:26:56.413Z,7.66
2022-10-29T12:27:56.465Z,6.79
2022-10-29T12:28:56.512Z,7.00
2022-10-29T12:29:56.455Z,8.09
2022-10-29T12:30:56.478Z,7.56
2022-10-29T12:32:56.729Z,7.84
2022-10-29T12:36:57.784Z,6.70
2022-10-29T12:37:56.808Z,7.59
2022-10-29T12:39:56.492Z,7.29
2022-10-29T12:40:56.521Z,7.91
2022-10-29T12:41:56.563Z,6.75
2022-10-29T12:42:56.482Z,7.29
2022-10-29T12:43:56.548Z,6.97
2022-10-29T12:44:56.488Z,7.19
2022-10-29T12:46:19.151Z,7.07
2022-10-29T12:46:56.512Z,7.40
2022-10-29T12:47:56.853Z,7.65
2022-10-29T12:48:56.509Z,6.93
2022-10-29T12:50:56.498Z,7.22
2022-10-29T12:52:56.709Z,6.78
2022-10-29T12:54:56.524Z,6.70
2022-10-29T12:55:56.507Z,7.17
2022-10-29T12:56:56.562Z,7.25
2022-10-29T12:57:56.505Z,6.47
2022-10-29T12:58:56.542Z,6.81
2022-10-29T12:59:56.542Z,6.25
2022-10-29T13:00:56.627Z,6.21
2022-10-29T13:02:11.262Z,6.24
2022-10-29T13:02:56.960Z,6.29
2022-10-29T13:03:56.564Z,6.76
2022-10-29T13:05:56.537Z,7.65
2022-10-29T13:06:56.584Z,6.55
2022-10-29T13:08:56.580Z,6.72
2022-10-29T13:09:56.553Z,6.40
2022-10-29T13:10:56.562Z,6.44
2022-10-29T13:13:56.595Z,6.86
2022-10-29T13:14:56.575Z,6.65
2022-10-29T13:15:56.556Z,6.76
2022-10-29T13:16:56.595Z,6.80
2022-10-29T13:17:56.803Z,6.16
2022-10-29T13:18:56.577Z,6.33
2022-10-29T13:20:56.595Z,6.53
2022-10-29T13:21:56.611Z,6.92
2022-10-29T13:22:56.691Z,7.00
2022-10-29T13:23:56.575Z,6.95
2022-10-29T13:24:56.607Z,6.89
2022-10-29T13:25:56.576Z,7.01
2022-10-29T13:26:56.642Z,6.81
2022-10-29T13:27:56.614Z,6.65
2022-10-29T13:28:56.600Z,6.93
2022-10-29T13:29:56.632Z,7.00
2022-10-29T13:30:56.599Z,7.00
2022-10-29T13:32:00.684Z,7.06
2022-10-29T13:32:56.900Z,6.02
2022-10-29T13:33:56.617Z,6.25
2022-10-29T13:34:56.646Z,5.64
2022-10-29T13:35:56.635Z,5.86
2022-10-29T13:36:56.617Z,6.00
2022-10-29T13:39:56.656Z,7.01
2022-10-29T13:41:56.649Z,6.20
2022-10-29T13:42:56.807Z,6.32
2022-10-29T13:43:56.654Z,6.57
2022-10-29T13:44:56.663Z,6.52
2022-10-29T13:46:56.680Z,7.35
2022-10-29T13:48:56.634Z,6.52
2022-10-29T13:51:56.755Z,6.61
2022-10-29T13:54:56.696Z,6.35
2022-10-29T13:58:56.695Z,6.35
2022-10-29T13:59:56.676Z,6.16
2022-10-29T14:00:56.796Z,6.66
2022-10-29T14:02:56.728Z,6.53
2022-10-29T14:03:56.699Z,6.31
2022-10-29T14:04:56.679Z,6.26
2022-10-29T14:06:56.706Z,5.69
2022-10-29T14:07:57.074Z,6.42
2022-10-29T14:08:56.689Z,7.00
2022-10-29T14:09:56.718Z,6.29
2022-10-29T14:10:56.740Z,6.34
2022-10-29T14:11:56.698Z,6.63
2022-10-29T14:12:57.063Z,6.28
2022-10-29T14:13:56.727Z,6.36
2022-10-29T14:15:56.741Z,6.76
2022-10-29T14:16:56.723Z,6.65
2022-10-29T14:17:56.738Z,8.54
2022-10-29T14:19:56.751Z,7.77
2022-10-29T14:21:56.730Z,7.68
2022-10-29T14:22:57.115Z,7.13
2022-10-29T14:24:56.755Z,6.73
2022-10-29T14:27:01.044Z,7.09
2022-10-29T14:27:57.144Z,6.46
2022-10-29T14:28:56.779Z,6.77
2022-10-29T14:29:56.747Z,6.29
2022-10-29T14:31:56.749Z,6.15
2022-10-29T14:32:56.770Z,6.73
2022-10-29T14:33:56.797Z,6.04
2022-10-29T14:34:56.767Z,6.74
2022-10-29T14:35:56.808Z,6.79
2022-10-29T14:36:56.765Z,6.46
2022-10-29T14:37:57.213Z,5.71
2022-10-29T14:38:56.842Z,6.29
2022-10-29T14:39:59.073Z,6.74
2022-10-29T14:40:56.781Z,7.09
2022-10-29T14:41:56.778Z,6.32
2022-10-29T14:42:57.052Z,6.86
2022-10-29T14:43:56.848Z,6.46
2022-10-29T14:44:56.787Z,6.46
2022-10-29T14:45:56.834Z,6.28
2022-10-29T14:46:56.839Z,6.52
2022-10-29T14:47:56.822Z,6.45
2022-10-29T14:48:56.838Z,6.61
2022-10-29T14:49:56.881Z,6.50
2022-10-29T14:50:56.843Z,6.81
2022-10-29T14:51:56.837Z,6.78
2022-10-29T14:52:57.141Z,6.95
2022-10-29T14:54:56.858Z,5.66
2022-10-29T14:55:56.853Z,6.61
2022-10-29T14:56:56.851Z,6.12
2022-10-29T14:57:56.839Z,6.96
2022-10-29T14:58:56.871Z,6.80
2022-10-29T14:59:56.834Z,6.46
2022-10-29T15:00:56.933Z,6.65
2022-10-29T15:02:57.515Z,6.53
2022-10-29T15:04:01.332Z,6.61
2022-10-29T15:04:56.866Z,7.00
2022-10-29T15:05:56.886Z,6.67
2022-10-29T15:06:56.915Z,5.93
2022-10-29T15:07:56.872Z,6.27
2022-10-29T15:08:56.887Z,7.38
2022-10-29T15:09:56.869Z,6.51
2022-10-29T15:10:56.869Z,6.56
2022-10-29T15:11:56.907Z,6.30
2022-10-29T15:12:57.188Z,7.39
2022-10-29T15:13:56.914Z,6.93
2022-10-29T15:14:56.928Z,6.92
2022-10-29T15:15:56.888Z,7.49
2022-10-29T15:16:56.932Z,7.70
2022-10-29T15:17:57.183Z,7.18
2022-10-29T15:18:56.894Z,7.54
2022-10-29T15:20:56.907Z,7.03
2022-10-29T15:21:56.922Z,6.36
2022-10-29T15:22:56.892Z,6.24
2022-10-29T15:23:56.890Z,6.56
2022-10-29T15:24:56.932Z,5.56
2022-10-29T15:25:56.890Z,5.70
2022-10-29T15:26:56.961Z,5.61
2022-10-29T15:27:57.238Z,5.51
2022-10-29T15:28:56.917Z,5.48
2022-10-29T15:29:56.956Z,5.50
2022-10-29T15:30:56.921Z,5.55
2022-10-29T15:32:57.236Z,6.69
2022-10-29T15:33:56.931Z,6.67
2022-10-29T15:34:56.971Z,6.00
2022-10-29T15:35:56.929Z,5.13
2022-10-29T15:36:56.929Z,5.71
2022-10-29T15:37:56.984Z,5.83
2022-10-29T15:38:56.941Z,5.63
2022-10-29T15:39:56.990Z,6.23
2022-10-29T15:41:01.544Z,5.75
2022-10-29T15:41:56.981Z,6.52
2022-10-29T15:42:57.287Z,5.75
2022-10-29T15:43:56.935Z,6.36
2022-10-29T15:44:56.974Z,6.29
2022-10-29T15:45:56.971Z,6.41
2022-10-29T15:46:56.963Z,6.82
2022-10-29T15:47:57.247Z,8.35
2022-10-29T15:48:56.984Z,7.32
2022-10-29T15:50:56.951Z,5.89
2022-10-29T15:51:56.985Z,5.50
2022-10-29T15:52:57.020Z,6.36
2022-10-29T15:53:56.978Z,5.43
2022-10-29T15:54:57.015Z,5.95
2022-10-29T15:55:56.973Z,5.50
2022-10-29T15:56:56.989Z,5.89
2022-10-29T15:57:57.365Z,5.49
2022-10-29T15:58:57.009Z,5.99
2022-10-29T15:59:57.040Z,5.57